Portada
METAR-TAF:

METAR-TAF

Aeroports :

Doha, Qatar

latitud: 25-15-40N, longitud: 051-33-54E, altitud: 11 m

Observació

L'informe es va fer fa 17 minuts, a les 18:00 UTC
Vent 5 kt del Nord
Temperatura 34°C
Humitat 80%
Pressió 995 hPa
Visibilitat: 7000 m

METAR: OTBD 111800Z 01005KT 7000 NSC 34/30 Q0995 NOSIG

Hora: 21:17 (18:17 UTC)

Pronòstic

L'informe es va fer fa 1 hora i 16 minuts, a les 17:01 UTC
Pronòstic vàlid del 11 a les 18 UTC al 12 a les 24 UTC
Vent 7 kt del Nord-Est
Visibilitat: 8000 m
Temporalment
l' 11 a les 21 UTC al 12 a les 07 UTC
Vent 5 kt del Est
Visibilitat: 5000 m
calitja
Evolucionant progressivament
l' 12 a les 08 UTC al 12 a les 10 UTC
Vent 13 kt del Nord

TAF: OTBD 111701Z 1118/1224 04007KT 8000 NSC TEMPO 1121/1207 10005KT 5000 HZ BECMG 1208/1210 36013KT

Observacions i pronòstics meteorològics de més de 4000 aeroports (METAR i TAF).

Les estacions disponibles són els punts grocs i vermells al mapa.

Posi el ratolí al punt desitjat per veure el nom de l'estació.

Feu clic per veure les observacions i els pronòstics meteorològics.

Per canviar el mapa: feu clic els botons verds amb una creu de color negre per apropar; al botó verd amb un guió per allunyar la imatge; o en les fletxes verdes per a mapes adjacents.


METAR-TAF: